Time;durP1;ratioP1;P1;durP2;ratioP2;P2;SDS_P1;SDS_P2;PMS_P1;PMS_P2;Temp;Humidity;BMP_temperature;BMP_pressure;BME280_temperature;BME280_humidity;BME280_pressure;Samples;Min_cycle;Max_cycle;Signal;HPM_P1;HPM_P2
2021/04/04 00:01:41;;;;;;;11.90;8.93;;;4.00;77.40;;;;;;5098000;28;20175;-43
2021/04/04 00:04:06;;;;;;;14.10;10.63;;;4.00;77.70;;;;;;5097391;28;20935;-44
2021/04/04 00:06:32;;;;;;;13.23;11.33;;;3.90;78.10;;;;;;5097324;28;20275;-43
2021/04/04 00:08:58;;;;;;;15.00;11.10;;;3.80;78.50;;;;;;5097306;28;20216;-43
2021/04/04 00:11:25;;;;;;;12.40;8.87;;;3.70;78.90;;;;;;5098266;28;20215;-44
2021/04/04 00:13:51;;;;;;;11.70;8.50;;;3.60;79.40;;;;;;5097821;28;20478;-41
2021/04/04 00:16:16;;;;;;;13.30;9.60;;;3.60;80.10;;;;;;5098386;28;20448;-43
2021/04/04 00:18:42;;;;;;;12.13;9.03;;;3.50;80.60;;;;;;5098132;28;20470;-43
2021/04/04 00:21:09;;;;;;;11.23;8.07;;;3.50;80.80;;;;;;5098833;28;20188;-43
2021/04/04 00:23:35;;;;;;;11.03;8.23;;;3.40;81.20;;;;;;5098639;28;20817;-42
2021/04/04 00:26:01;;;;;;;12.27;7.30;;;3.40;81.50;;;;;;5098474;28;20418;-42
2021/04/04 00:28:27;;;;;;;10.80;6.73;;;3.40;81.60;;;;;;5098383;28;20700;-43
2021/04/04 00:30:52;;;;;;;11.93;7.37;;;3.40;81.90;;;;;;5080714;28;20426;-43
2021/04/04 00:33:18;;;;;;;13.20;6.93;;;3.30;81.70;;;;;;5097479;28;20430;-43
2021/04/04 00:35:44;;;;;;;10.80;8.33;;;3.30;82.00;;;;;;5097889;28;20474;-43
2021/04/04 00:38:11;;;;;;;13.47;10.20;;;3.20;82.20;;;;;;5097290;28;20895;-43
2021/04/04 00:40:37;;;;;;;22.40;13.67;;;3.20;82.70;;;;;;5098771;28;20180;-42
2021/04/04 00:43:04;;;;;;;22.87;13.50;;;3.20;82.60;;;;;;5079766;28;20441;-44
2021/04/04 00:45:36;;;;;;;22.50;14.70;;;3.10;82.90;;;;;;5098465;28;20422;-43
2021/04/04 00:48:03;;;;;;;22.17;12.80;;;3.10;83.30;;;;;;5102428;28;20823;-42
2021/04/04 00:50:34;;;;;;;15.07;11.20;;;3.10;83.60;;;;;;5101963;28;20439;-42
2021/04/04 00:53:00;;;;;;;12.93;10.40;;;3.10;83.90;;;;;;5101700;28;20414;-40
2021/04/04 00:55:26;;;;;;;15.87;9.50;;;3.00;84.00;;;;;;5102028;28;20445;-43
2021/04/04 00:57:53;;;;;;;12.60;10.17;;;3.00;84.40;;;;;;5102285;28;20880;-42
2021/04/04 01:00:22;;;;;;;14.00;10.13;;;3.00;84.60;;;;;;5101915;28;20422;-42
2021/04/04 01:06:11;;;;;;;12.43;9.70;;;3.00;84.80;;;;;;5101450;28;20445;-43
2021/04/04 01:08:38;;;;;;;16.20;10.63;;;2.90;84.60;;;;;;5101686;28;20422;-42
2021/04/04 01:11:05;;;;;;;12.97;8.80;;;2.90;84.80;;;;;;5084191;28;20990;-44
2021/04/04 01:13:50;;;;;;;11.37;8.40;;;2.90;85.00;;;;;;5101305;28;20741;-42
2021/04/04 01:16:26;;;;;;;11.77;8.30;;;2.90;85.20;;;;;;5083905;28;20497;-40
2021/04/04 01:19:03;;;;;;;11.00;8.40;;;2.80;85.20;;;;;;5101600;28;20530;-43
2021/04/04 01:21:38;;;;;;;10.33;7.47;;;2.80;85.40;;;;;;5083230;28;20708;-43
2021/04/04 01:24:21;;;;;;;11.13;6.97;;;2.70;85.50;;;;;;5094260;28;20497;-42
2021/04/04 01:27:18;;;;;;;8.97;6.37;;;2.70;85.70;;;;;;5081095;28;20832;-43
2021/04/04 01:29:44;;;;;;;8.50;6.60;;;2.70;85.70;;;;;;5097513;28;20417;-42
2021/04/04 01:32:10;;;;;;;9.67;6.40;;;2.60;85.80;;;;;;5083388;28;20442;-43
2021/04/04 01:34:36;;;;;;;14.30;6.30;;;2.60;86.00;;;;;;5100828;28;20848;-43
2021/04/04 01:37:05;;;;;;;11.07;6.00;;;2.70;86.30;;;;;;5100841;28;20441;-43
2021/04/04 01:39:40;;;;;;;8.80;6.00;;;2.60;86.50;;;;;;5083004;28;20418;-42
2021/04/04 01:42:09;;;;;;;9.73;6.30;;;2.60;86.50;;;;;;5101206;28;20433;-42
2021/04/04 01:44:36;;;;;;;7.90;5.80;;;2.60;86.60;;;;;;5083070;28;20509;-43
2021/04/04 01:47:02;;;;;;;7.40;6.23;;;2.50;86.70;;;;;;5066246;28;20442;-43
2021/04/04 01:49:29;;;;;;;6.93;5.27;;;2.50;86.90;;;;;;5100764;28;20719;-43
2021/04/04 01:51:55;;;;;;;11.60;5.73;;;2.50;87.00;;;;;;5100675;28;20715;-43
2021/04/04 01:54:21;;;;;;;7.80;5.60;;;2.50;87.10;;;;;;5082307;28;20506;-42
2021/04/04 01:56:47;;;;;;;7.63;5.70;;;2.40;87.10;;;;;;5082080;28;20440;-43
2021/04/04 01:59:15;;;;;;;7.80;4.40;;;2.40;87.00;;;;;;5100205;28;20469;-43
2021/04/04 02:01:50;;;;;;;5.13;4.63;;;2.40;87.10;;;;;;5082522;28;20474;-42
2021/04/04 02:04:17;;;;;;;7.83;4.70;;;2.30;86.80;;;;;;5082435;28;20426;-43
2021/04/04 02:06:43;;;;;;;5.90;5.03;;;2.30;86.90;;;;;;5082684;28;20423;-43
2021/04/04 02:09:11;;;;;;;9.67;5.43;;;2.30;87.20;;;;;;5100215;28;20442;-41
2021/04/04 02:11:38;;;;;;;7.67;4.97;;;2.30;87.30;;;;;;5081598;28;20968;-43
2021/04/04 02:14:10;;;;;;;8.00;6.00;;;2.20;87.30;;;;;;5080758;28;20497;-42
2021/04/04 02:16:42;;;;;;;9.27;5.70;;;2.20;87.40;;;;;;5082045;28;20422;-43
2021/04/04 02:19:09;;;;;;;8.87;5.53;;;2.20;87.60;;;;;;5082909;28;20528;-43
2021/04/04 02:21:35;;;;;;;9.93;5.17;;;2.20;87.50;;;;;;5082162;28;20470;-42
2021/04/04 02:24:08;;;;;;;6.90;4.83;;;2.10;87.50;;;;;;5081733;28;20448;-41
2021/04/04 02:26:34;;;;;;;7.83;5.60;;;2.10;88.40;;;;;;5082257;28;20426;-43
2021/04/04 02:29:04;;;;;;;8.40;6.60;;;2.10;87.90;;;;;;5100333;28;20495;-43
2021/04/04 02:31:32;;;;;;;11.60;6.60;;;2.00;88.10;;;;;;5099763;28;20501;-41
2021/04/04 02:34:03;;;;;;;10.43;6.10;;;2.00;88.20;;;;;;5098683;28;20422;-43
2021/04/04 02:36:29;;;;;;;8.13;5.90;;;2.00;88.20;;;;;;5082276;28;20450;-42
2021/04/04 02:39:03;;;;;;;8.60;6.23;;;2.00;88.40;;;;;;5081659;28;20478;-43
2021/04/04 02:41:30;;;;;;;8.10;5.83;;;2.00;88.50;;;;;;5099990;28;20440;-43
2021/04/04 02:43:56;;;;;;;10.77;5.00;;;2.00;88.40;;;;;;5081292;28;20464;-42
2021/04/04 02:46:24;;;;;;;8.53;6.33;;;2.00;88.60;;;;;;5099319;28;20431;-42
2021/04/04 02:49:04;;;;;;;6.43;5.30;;;2.00;88.50;;;;;;5081327;28;20444;-42
2021/04/04 02:51:37;;;;;;;8.70;6.27;;;2.00;88.60;;;;;;5081356;28;20525;-41
2021/04/04 02:54:03;;;;;;;8.23;6.03;;;1.90;88.50;;;;;;5099438;28;20418;-43
2021/04/04 02:56:40;;;;;;;6.97;4.93;;;1.90;88.40;;;;;;5098853;28;20430;-43
2021/04/04 02:59:13;;;;;;;10.43;6.20;;;1.90;88.80;;;;;;5099306;28;20473;-43
2021/04/04 03:01:39;;;;;;;9.30;5.53;;;1.90;88.90;;;;;;5080946;28;20576;-42
2021/04/04 03:04:05;;;;;;;10.00;5.37;;;1.80;88.90;;;;;;5081216;28;20433;-41
2021/04/04 03:06:32;;;;;;;9.10;6.50;;;1.80;89.00;;;;;;5080980;28;20434;-43
2021/04/04 03:08:59;;;;;;;12.70;6.80;;;1.80;89.30;;;;;;5079900;28;20414;-43
2021/04/04 03:11:25;;;;;;;9.17;5.90;;;1.80;89.40;;;;;;5081501;28;20444;-41
2021/04/04 03:13:52;;;;;;;9.50;5.60;;;1.70;89.30;;;;;;5081089;28;20470;-42
2021/04/04 03:16:21;;;;;;;9.17;5.10;;;1.70;89.20;;;;;;5099176;28;20840;-43
2021/04/04 03:18:48;;;;;;;7.43;5.73;;;1.70;89.30;;;;;;5098542;28;20528;-43
2021/04/04 03:21:17;;;;;;;7.60;6.20;;;1.70;89.50;;;;;;5080234;28;20421;-42
2021/04/04 03:23:44;;;;;;;8.53;5.60;;;1.70;89.70;;;;;;5080137;28;20486;-43
2021/04/04 03:26:11;;;;;;;7.90;5.83;;;1.70;89.80;;;;;;5064064;28;20442;-42
2021/04/04 03:28:38;;;;;;;9.83;6.43;;;1.60;89.80;;;;;;5098181;28;20732;-43
2021/04/04 03:31:04;;;;;;;8.37;6.43;;;1.60;90.00;;;;;;5098312;28;20441;-41
2021/04/04 03:33:30;;;;;;;13.30;7.23;;;1.60;90.10;;;;;;5080270;28;20432;-42
2021/04/04 03:35:57;;;;;;;8.90;5.93;;;1.50;90.10;;;;;;5080884;28;20431;-42
2021/04/04 03:38:25;;;;;;;13.33;6.20;;;1.40;90.20;;;;;;5080051;28;20782;-42
2021/04/04 03:40:52;;;;;;;7.20;5.07;;;1.30;90.40;;;;;;5080375;28;20434;-41
2021/04/04 03:43:30;;;;;;;9.10;5.63;;;1.30;90.70;;;;;;5080881;28;20425;-43
2021/04/04 03:46:01;;;;;;;10.80;6.00;;;1.30;90.90;;;;;;5080653;28;20461;-42
2021/04/04 03:48:28;;;;;;;6.40;5.63;;;1.30;90.90;;;;;;5081062;28;20418;-42
2021/04/04 03:50:55;;;;;;;8.13;5.50;;;1.30;90.80;;;;;;5098414;28;20431;-42
2021/04/04 03:53:22;;;;;;;8.53;5.63;;;1.30;90.70;;;;;;5079953;28;20824;-41
2021/04/04 03:55:51;;;;;;;11.83;6.40;;;1.30;90.70;;;;;;5080149;28;20449;-43
2021/04/04 03:58:19;;;;;;;10.43;6.10;;;1.30;90.70;;;;;;5080158;28;20879;-42
2021/04/04 04:00:46;;;;;;;7.70;5.60;;;1.30;90.60;;;;;;5098002;28;20450;-43
2021/04/04 04:03:13;;;;;;;8.63;6.13;;;1.30;90.50;;;;;;5080764;28;20418;-43
2021/04/04 04:05:40;;;;;;;8.80;6.30;;;1.30;90.50;;;;;;5097842;28;20427;-43
2021/04/04 04:08:06;;;;;;;8.67;6.33;;;1.30;90.60;;;;;;5098503;28;20429;-43
2021/04/04 04:10:32;;;;;;;7.77;6.30;;;1.30;90.60;;;;;;5080043;28;20532;-43
2021/04/04 04:12:59;;;;;;;8.90;5.10;;;1.30;90.70;;;;;;5077787;28;20446;-43
2021/04/04 04:15:26;;;;;;;10.87;5.93;;;1.30;90.80;;;;;;5079428;28;20474;-43
2021/04/04 04:17:52;;;;;;;6.67;5.60;;;1.20;90.80;;;;;;5077721;28;20825;-41
2021/04/04 04:20:18;;;;;;;6.20;5.60;;;1.20;90.80;;;;;;5083824;28;20446;-42
2021/04/04 04:22:45;;;;;;;11.00;6.40;;;1.20;90.90;;;;;;5087448;28;20441;-43
2021/04/04 04:25:11;;;;;;;9.30;7.17;;;1.20;90.90;;;;;;5066426;28;20176;-43
2021/04/04 04:27:38;;;;;;;10.17;6.00;;;1.20;91.00;;;;;;5078734;28;20442;-40
2021/04/04 04:30:06;;;;;;;7.13;6.30;;;1.20;91.00;;;;;;5085759;28;20429;-43
2021/04/04 04:32:35;;;;;;;8.20;6.40;;;1.20;91.00;;;;;;5103661;28;20422;-43
2021/04/04 04:35:02;;;;;;;7.73;6.10;;;1.10;91.00;;;;;;5086318;28;20418;-42
2021/04/04 04:37:30;;;;;;;5.67;4.87;;;1.00;91.00;;;;;;5103859;28;20469;-43
2021/04/04 04:39:57;;;;;;;5.67;5.00;;;1.00;91.10;;;;;;5104418;28;20500;-42
2021/04/04 04:42:23;;;;;;;8.80;5.67;;;0.90;91.20;;;;;;5086084;28;20414;-42
2021/04/04 04:44:50;;;;;;;6.67;5.20;;;0.90;91.40;;;;;;5086956;28;20429;-42
2021/04/04 04:47:16;;;;;;;7.60;6.00;;;0.90;91.40;;;;;;5103658;28;20832;-43
2021/04/04 04:49:45;;;;;;;7.63;5.27;;;0.90;91.40;;;;;;5104273;28;20406;-41
2021/04/04 04:52:14;;;;;;;6.23;5.53;;;1.00;91.40;;;;;;5104216;28;20868;-43
2021/04/04 04:54:42;;;;;;;11.13;6.53;;;1.00;91.30;;;;;;5104020;28;20792;-42
2021/04/04 04:57:10;;;;;;;7.23;6.10;;;1.00;91.30;;;;;;5103708;28;20433;-42
2021/04/04 04:59:35;;;;;;;7.73;6.20;;;1.00;91.30;;;;;;5104301;28;20417;-41
2021/04/04 05:02:04;;;;;;;9.70;7.00;;;1.00;91.30;;;;;;5103521;28;20442;-43
2021/04/04 05:04:30;;;;;;;9.70;5.90;;;1.00;91.30;;;;;;5103600;28;20180;-42
2021/04/04 05:06:56;;;;;;;11.30;5.87;;;1.00;91.40;;;;;;5101482;28;20851;-43
2021/04/04 05:09:22;;;;;;;8.53;6.40;;;1.00;91.60;;;;;;5104062;28;20180;-43
2021/04/04 05:11:49;;;;;;;13.33;6.77;;;1.00;91.60;;;;;;5102188;28;20736;-43
2021/04/04 05:14:15;;;;;;;7.70;6.40;;;1.00;91.40;;;;;;5085302;28;20560;-42
2021/04/04 05:16:41;;;;;;;6.90;5.23;;;1.10;91.40;;;;;;5085769;28;20437;-42
2021/04/04 05:19:08;;;;;;;7.27;5.20;;;1.10;91.40;;;;;;5086633;28;20557;-41
2021/04/04 05:21:35;;;;;;;7.37;5.63;;;1.20;91.30;;;;;;5065928;28;20809;-43
2021/04/04 05:24:06;;;;;;;7.73;6.03;;;1.20;91.20;;;;;;5066053;28;20526;-43
2021/04/04 05:26:40;;;;;;;11.43;6.10;;;1.30;91.10;;;;;;5083335;28;20435;-43
2021/04/04 05:29:11;;;;;;;9.90;6.70;;;1.40;91.00;;;;;;5083870;28;20433;-42
2021/04/04 05:31:56;;;;;;;8.30;6.30;;;1.40;90.80;;;;;;5081561;28;20475;-40
2021/04/04 05:34:27;;;;;;;9.27;6.37;;;1.50;90.70;;;;;;5060264;28;20431;-42
2021/04/04 05:36:57;;;;;;;9.63;7.00;;;1.60;90.80;;;;;;5073781;28;20426;-43
2021/04/04 05:39:26;;;;;;;9.77;5.60;;;1.60;90.80;;;;;;5080440;28;20467;-43
2021/04/04 05:41:54;;;;;;;8.73;6.00;;;1.60;90.70;;;;;;5080080;28;20443;-43
2021/04/04 05:44:47;;;;;;;11.27;6.70;;;1.60;90.70;;;;;;5080054;28;20457;-42
2021/04/04 05:47:41;;;;;;;9.50;6.50;;;1.60;90.70;;;;;;5067884;28;20751;-42
2021/04/04 05:50:27;;;;;;;8.30;6.20;;;1.60;90.70;;;;;;5079610;28;20762;-43
2021/04/04 05:53:28;;;;;;;8.50;7.10;;;1.60;90.70;;;;;;5062834;28;20412;-43
2021/04/04 05:56:23;;;;;;;7.83;5.73;;;1.60;90.80;;;;;;4979570;28;20752;-43
2021/04/04 05:59:00;;;;;;;8.27;6.40;;;1.60;91.00;;;;;;5058677;28;20467;-43
2021/04/04 06:01:28;;;;;;;8.00;6.17;;;1.80;90.80;;;;;;5079985;28;20492;-40
2021/04/04 06:04:28;;;;;;;8.33;6.03;;;2.00;90.60;;;;;;5079617;28;20514;-41
2021/04/04 06:07:15;;;;;;;9.50;5.90;;;2.20;90.40;;;;;;5080472;28;20459;-41
2021/04/04 06:10:11;;;;;;;8.60;6.63;;;2.40;90.10;;;;;;5078536;28;20702;-42
2021/04/04 06:12:43;;;;;;;8.63;6.43;;;2.60;89.10;;;;;;5078642;28;20418;-41
2021/04/04 06:15:11;;;;;;;11.20;7.40;;;2.80;88.00;;;;;;5096411;28;20458;-42
2021/04/04 06:17:46;;;;;;;8.33;6.30;;;3.00;88.20;;;;;;5098906;28;20884;-41
2021/04/04 06:20:42;;;;;;;14.50;7.47;;;3.10;87.00;;;;;;5081062;28;20520;-41
2021/04/04 06:23:18;;;;;;;9.97;5.80;;;3.40;86.80;;;;;;5026504;28;20422;-41
2021/04/04 06:25:49;;;;;;;8.77;7.07;;;3.60;86.40;;;;;;5082268;28;20701;-43
2021/04/04 06:28:18;;;;;;;8.30;6.50;;;3.80;85.30;;;;;;5099933;28;20434;-41
2021/04/04 06:30:52;;;;;;;10.13;7.30;;;4.00;84.50;;;;;;5082386;28;20430;-43
2021/04/04 06:33:21;;;;;;;10.20;8.67;;;4.20;83.90;;;;;;5081940;28;20413;-43
2021/04/04 06:36:16;;;;;;;13.83;9.30;;;4.40;82.60;;;;;;5099218;28;20425;-41
2021/04/04 06:38:41;;;;;;;9.53;7.33;;;4.60;81.40;;;;;;5028688;28;20568;-42
2021/04/04 06:41:32;;;;;;;12.70;8.97;;;4.80;81.10;;;;;;5099027;28;20592;-43
2021/04/04 06:44:13;;;;;;;10.17;7.83;;;4.90;80.60;;;;;;5097379;28;20316;-41
2021/04/04 06:47:04;;;;;;;10.60;8.33;;;5.00;80.00;;;;;;5098685;28;20426;-43
2021/04/04 06:49:48;;;;;;;14.10;8.13;;;5.20;79.10;;;;;;5099076;28;20426;-40
2021/04/04 06:52:34;;;;;;;9.53;7.23;;;5.40;79.30;;;;;;5099219;28;20430;-43
2021/04/04 06:55:03;;;;;;;11.53;8.03;;;5.70;78.00;;;;;;5081027;28;20425;-42
2021/04/04 06:58:06;;;;;;;12.60;7.80;;;5.30;77.60;;;;;;5099036;28;20477;-40
2021/04/04 07:00:37;;;;;;;12.40;7.90;;;5.60;78.50;;;;;;5099575;28;20517;-42
2021/04/04 07:03:11;;;;;;;10.20;7.97;;;6.00;78.60;;;;;;5099318;28;20409;-41
2021/04/04 07:05:48;;;;;;;9.77;7.43;;;6.40;77.10;;;;;;5063972;28;20426;-41
2021/04/04 07:08:28;;;;;;;14.43;7.57;;;6.50;76.00;;;;;;5098696;28;20406;-42
2021/04/04 07:11:03;;;;;;;9.83;6.93;;;6.70;74.40;;;;;;5099455;28;20430;-41
2021/04/04 07:13:51;;;;;;;9.03;6.63;;;7.00;74.00;;;;;;5099028;28;20484;-42
2021/04/04 07:16:44;;;;;;;11.53;6.73;;;7.10;72.10;;;;;;5079913;28;20733;-42
2021/04/04 07:19:34;;;;;;;10.80;6.50;;;7.20;73.00;;;;;;5081674;28;20470;-46
2021/04/04 07:22:18;;;;;;;9.03;3.73;;;7.40;70.10;;;;;;5099923;28;20434;-45
2021/04/04 07:25:20;;;;;;;6.50;4.83;;;8.30;91.40;;;;;;5099656;28;20749;-46
2021/04/04 07:28:26;;;;;;;7.40;6.30;;;9.70;92.60;;;;;;5079166;28;20423;-42
2021/04/04 07:30:58;;;;;;;8.73;7.07;;;10.90;71.70;;;;;;5083149;28;20434;-41
2021/04/04 07:33:27;;;;;;;8.20;6.10;;;10.40;58.00;;;;;;5098624;28;20414;-42
2021/04/04 07:36:14;;;;;;;8.87;7.63;;;9.70;57.50;;;;;;5097917;28;20767;-42
2021/04/04 07:38:52;;;;;;;12.60;6.73;;;9.00;58.60;;;;;;5097925;28;20454;-42
2021/04/04 07:41:21;;;;;;;7.10;6.00;;;8.90;60.10;;;;;;5097864;28;20453;-41
2021/04/04 07:43:53;;;;;;;13.70;6.30;;;8.70;59.80;;;;;;5097832;28;20468;-41
2021/04/04 07:46:25;;;;;;;10.90;6.20;;;9.40;60.90;;;;;;5080322;28;20430;-41
2021/04/04 07:49:32;;;;;;;10.20;6.20;;;9.50;58.00;;;;;;5098005;28;20866;-42
2021/04/04 07:51:59;;;;;;;7.67;5.53;;;10.60;57.10;;;;;;5098669;28;20866;-42
2021/04/04 07:54:29;;;;;;;11.73;7.13;;;11.30;54.90;;;;;;5079738;28;20885;-40
2021/04/04 07:57:07;;;;;;;11.53;6.40;;;11.80;54.00;;;;;;5098211;28;20438;-40
2021/04/04 07:59:39;;;;;;;14.30;6.70;;;11.70;51.70;;;;;;5098533;28;20852;-43
2021/04/04 08:02:10;;;;;;;9.07;5.97;;;11.80;51.80;;;;;;5080229;28;20435;-39
2021/04/04 08:04:52;;;;;;;9.73;6.20;;;12.30;51.50;;;;;;5098526;28;20398;-41
2021/04/04 08:07:29;;;;;;;9.07;6.20;;;14.00;50.30;;;;;;5096832;28;20425;-42
2021/04/04 08:10:07;;;;;;;8.00;6.10;;;15.20;47.80;;;;;;5062545;28;20719;-42
2021/04/04 08:13:09;;;;;;;12.27;7.33;;;16.40;45.50;;;;;;5096552;28;20414;-43
2021/04/04 08:16:13;;;;;;;12.37;6.60;;;16.70;41.50;;;;;;5079447;28;20438;-41
2021/04/04 08:18:39;;;;;;;7.50;5.77;;;16.50;41.10;;;;;;5097392;28;20457;-42
2021/04/04 08:21:17;;;;;;;8.77;5.50;;;17.20;40.20;;;;;;5096717;28;20426;-41
2021/04/04 08:23:47;;;;;;;9.80;6.17;;;17.70;38.50;;;;;;5097342;28;20496;-43
2021/04/04 08:26:22;;;;;;;8.07;5.30;;;17.00;38.10;;;;;;5078741;28;20461;-41
2021/04/04 08:28:51;;;;;;;6.63;5.60;;;17.90;37.90;;;;;;5097923;28;20481;-43
2021/04/04 08:31:45;;;;;;;6.90;5.40;;;18.40;36.70;;;;;;5097481;28;20442;-41
2021/04/04 08:34:20;;;;;;;9.57;6.20;;;18.50;36.60;;;;;;5095601;28;20433;-40
2021/04/04 08:36:57;;;;;;;9.93;6.00;;;18.30;35.80;;;;;;5096784;28;20528;-38
2021/04/04 08:39:25;;;;;;;9.23;6.20;;;16.90;36.00;;;;;;5095688;28;20550;-43
2021/04/04 08:41:53;;;;;;;7.87;5.50;;;17.70;35.80;;;;;;5096199;28;20426;-41
2021/04/04 08:44:25;;;;;;;6.83;5.57;;;17.40;35.20;;;;;;5076622;28;20418;-41
2021/04/04 08:47:22;;;;;;;6.20;5.00;;;17.60;34.90;;;;;;5061858;28;20473;-41
2021/04/04 08:49:49;;;;;;;7.20;4.97;;;18.50;35.50;;;;;;5078951;28;20413;-43
2021/04/04 08:52:20;;;;;;;6.40;5.20;;;19.60;35.60;;;;;;5097370;28;20487;-41
2021/04/04 08:54:52;;;;;;;6.13;4.70;;;20.10;34.00;;;;;;5078313;28;20418;-42
2021/04/04 08:57:31;;;;;;;10.40;5.57;;;20.80;34.10;;;;;;5093974;28;20795;-42
2021/04/04 08:59:57;;;;;;;5.87;4.10;;;21.30;32.60;;;;;;5079112;28;20410;-42
2021/04/04 09:02:26;;;;;;;7.03;4.57;;;21.90;31.90;;;;;;5096695;28;20591;-41
2021/04/04 09:04:53;;;;;;;6.60;4.73;;;22.50;31.80;;;;;;5078750;28;20282;-43
2021/04/04 09:07:20;;;;;;;7.03;5.07;;;22.80;30.90;;;;;;5097961;28;20434;-42
2021/04/04 09:09:48;;;;;;;6.63;5.07;;;23.20;30.20;;;;;;5082042;28;20662;-42
2021/04/04 09:12:14;;;;;;;6.43;4.57;;;22.70;28.80;;;;;;5082341;28;20786;-42
2021/04/04 09:14:42;;;;;;;6.47;4.50;;;21.60;29.00;;;;;;5081161;28;20564;-40
2021/04/04 09:17:12;;;;;;;5.87;4.30;;;21.20;29.30;;;;;;5082046;28;20814;-43
2021/04/04 09:19:40;;;;;;;4.33;3.93;;;20.00;29.10;;;;;;5098659;28;20457;-42
2021/04/04 09:22:12;;;;;;;9.33;5.17;;;19.80;30.40;;;;;;5098457;28;20533;-41
2021/04/04 09:24:44;;;;;;;8.20;4.87;;;19.30;31.40;;;;;;5087448;28;20422;-41
2021/04/04 09:27:16;;;;;;;7.23;4.80;;;19.10;31.40;;;;;;5098868;28;20512;-41
2021/04/04 09:29:45;;;;;;;7.40;5.17;;;19.30;32.00;;;;;;5081266;28;20426;-43
2021/04/04 09:32:29;;;;;;;5.57;4.80;;;19.10;31.40;;;;;;5099430;28;20448;-43
2021/04/04 09:34:54;;;;;;;6.87;4.10;;;19.20;31.60;;;;;;5099065;28;20684;-43
2021/04/04 09:37:26;;;;;;;6.53;3.97;;;18.70;29.80;;;;;;5098703;28;20818;-42
2021/04/04 09:39:52;;;;;;;5.07;3.53;;;18.50;31.80;;;;;;5097705;28;20840;-40
2021/04/04 09:42:18;;;;;;;7.73;3.40;;;18.30;31.80;;;;;;5097186;28;20440;-36
2021/04/04 09:44:45;;;;;;;3.97;3.23;;;18.70;32.20;;;;;;5098642;28;20505;-36
2021/04/04 09:47:12;;;;;;;6.20;3.60;;;19.80;31.70;;;;;;5096680;28;20426;-35
2021/04/04 09:49:47;;;;;;;4.97;3.57;;;20.30;29.90;;;;;;5098729;28;20423;-35
2021/04/04 09:52:24;;;;;;;5.70;3.00;;;20.10;29.40;;;;;;5098571;28;20434;-36
2021/04/04 09:55:10;;;;;;;5.40;3.37;;;20.80;30.10;;;;;;5099507;28;20410;-36
2021/04/04 09:57:40;;;;;;;4.20;3.20;;;21.00;29.50;;;;;;5099610;28;20466;-36
2021/04/04 10:00:16;;;;;;;4.70;3.60;;;20.70;29.40;;;;;;5099602;28;20418;-36
2021/04/04 10:02:42;;;;;;;6.60;3.13;;;20.70;29.00;;;;;;5099987;28;20467;-36
2021/04/04 10:05:09;;;;;;;3.53;3.10;;;21.30;28.20;;;;;;5100151;28;20747;-35
2021/04/04 10:07:35;;;;;;;7.10;3.60;;;21.10;27.70;;;;;;5082875;28;20475;-36
2021/04/04 10:10:03;;;;;;;4.23;3.10;;;20.90;28.10;;;;;;5100527;28;20419;-36
2021/04/04 10:12:28;;;;;;;4.40;3.73;;;21.50;29.00;;;;;;5099758;28;20471;-35
2021/04/04 10:15:05;;;;;;;5.40;3.60;;;23.10;28.30;;;;;;5092909;28;20490;-36
2021/04/04 10:17:31;;;;;;;4.70;3.60;;;23.90;27.60;;;;;;5099499;28;20864;-36
2021/04/04 10:19:59;;;;;;;5.20;3.77;;;24.50;26.40;;;;;;5098875;28;20410;-36
2021/04/04 10:22:25;;;;;;;5.10;3.77;;;25.40;25.80;;;;;;5099539;28;20531;-36
2021/04/04 10:24:53;;;;;;;4.10;3.17;;;25.10;26.90;;;;;;5104344;28;20415;-37
2021/04/04 10:27:28;;;;;;;5.57;3.67;;;24.50;26.70;;;;;;5100908;28;20446;-36
2021/04/04 10:30:07;;;;;;;6.47;4.57;;;24.20;26.80;;;;;;5098061;28;20443;-36
2021/04/04 10:32:32;;;;;;;5.53;4.30;;;24.40;26.10;;;;;;5099398;28;20677;-34
2021/04/04 10:34:58;;;;;;;5.00;4.50;;;25.60;25.40;;;;;;5099759;28;20426;-35
2021/04/04 10:37:28;;;;;;;4.93;4.23;;;26.40;24.40;;;;;;5098127;28;20188;-35
2021/04/04 10:40:24;;;;;;;4.80;4.30;;;26.60;23.90;;;;;;5099294;28;20414;-35
2021/04/04 10:42:56;;;;;;;5.63;4.83;;;26.60;24.10;;;;;;5095407;28;20422;-40
2021/04/04 10:45:22;;;;;;;4.90;4.40;;;26.80;23.90;;;;;;5099035;28;20425;-40
2021/04/04 10:47:47;;;;;;;4.77;4.30;;;26.90;23.40;;;;;;5099098;28;21078;-42
2021/04/04 10:50:15;;;;;;;4.30;3.90;;;27.00;23.50;;;;;;5098596;28;20579;-41
2021/04/04 10:52:43;;;;;;;5.30;4.63;;;27.50;23.70;;;;;;5098930;28;20194;-43
2021/04/04 10:55:11;;;;;;;4.63;4.20;;;27.80;23.10;;;;;;5096980;28;20414;-42
2021/04/04 10:57:38;;;;;;;4.30;3.87;;;26.20;22.90;;;;;;5095559;28;20509;-42
2021/04/04 11:00:10;;;;;;;6.93;5.10;;;26.70;23.10;;;;;;5098711;28;20713;-43
2021/04/04 11:02:37;;;;;;;5.80;4.90;;;25.80;23.20;;;;;;5098900;28;20434;-41
2021/04/04 11:05:04;;;;;;;5.80;4.60;;;25.90;24.10;;;;;;5081057;28;20458;-41
2021/04/04 11:07:30;;;;;;;6.00;4.30;;;24.10;25.10;;;;;;5096293;28;20540;-43
2021/04/04 11:09:56;;;;;;;5.00;4.50;;;25.70;25.10;;;;;;5077860;28;20777;-43
2021/04/04 11:12:23;;;;;;;5.87;4.80;;;27.00;25.10;;;;;;5095744;28;20189;-43
2021/04/04 11:14:51;;;;;;;5.47;4.60;;;27.80;23.90;;;;;;5089454;28;20514;-41
2021/04/04 11:17:20;;;;;;;5.87;4.73;;;27.90;23.50;;;;;;5095431;28;20474;-41
2021/04/04 11:19:48;;;;;;;4.90;4.40;;;28.40;23.40;;;;;;5078476;28;20883;-42
2021/04/04 11:22:17;;;;;;;7.03;4.73;;;25.60;23.10;;;;;;5078936;28;20465;-42
2021/04/04 11:25:27;;;;;;;7.53;4.20;;;25.50;24.30;;;;;;5079719;28;20402;-43
2021/04/04 11:27:52;;;;;;;5.00;4.60;;;25.00;24.60;;;;;;4977075;28;20523;-43
2021/04/04 11:30:27;;;;;;;6.20;4.10;;;25.80;23.90;;;;;;4959308;28;20660;-43
2021/04/04 11:33:16;;;;;;;4.80;4.30;;;26.10;24.10;;;;;;5031584;28;20275;-42
2021/04/04 11:36:05;;;;;;;5.00;4.30;;;27.20;23.10;;;;;;5066562;28;20442;-43
2021/04/04 11:38:36;;;;;;;5.27;4.77;;;25.60;23.00;;;;;;5097372;28;20730;-42
2021/04/04 11:41:10;;;;;;;4.97;4.33;;;25.80;23.00;;;;;;5097764;28;20430;-42
2021/04/04 11:43:36;;;;;;;4.27;3.87;;;25.60;23.50;;;;;;5098605;28;20410;-42
2021/04/04 11:46:02;;;;;;;3.60;3.30;;;25.80;23.50;;;;;;5096330;28;20449;-43
2021/04/04 11:48:35;;;;;;;6.00;4.30;;;25.80;24.60;;;;;;5063226;28;20313;-42
2021/04/04 11:51:10;;;;;;;4.63;3.80;;;27.30;23.90;;;;;;5058864;28;20181;-43
2021/04/04 11:53:43;;;;;;;4.90;4.40;;;28.90;23.40;;;;;;5077627;28;20434;-44
2021/04/04 11:56:41;;;;;;;7.83;4.67;;;29.40;21.60;;;;;;5079824;28;20422;-42
2021/04/04 11:59:08;;;;;;;6.73;4.80;;;29.00;22.30;;;;;;5098073;28;20485;-43
2021/04/04 12:01:33;;;;;;;4.27;3.90;;;29.50;22.10;;;;;;5080684;28;20715;-43
2021/04/04 12:04:29;;;;;;;5.30;3.80;;;29.60;22.30;;;;;;5079120;28;20422;-43
2021/04/04 12:07:09;;;;;;;4.60;4.20;;;29.90;22.30;;;;;;5097546;28;20184;-42
2021/04/04 12:09:36;;;;;;;6.50;5.27;;;30.60;22.70;;;;;;5097668;28;20420;-43
2021/04/04 12:12:02;;;;;;;5.30;3.90;;;31.30;21.80;;;;;;5097553;28;20420;-43
2021/04/04 12:14:28;;;;;;;5.23;4.10;;;31.20;21.70;;;;;;5097685;28;20455;-43
2021/04/04 12:16:54;;;;;;;4.93;4.20;;;31.50;21.40;;;;;;5078891;28;20430;-46
2021/04/04 12:19:30;;;;;;;4.97;3.80;;;31.30;21.00;;;;;;5098040;28;20236;-41
2021/04/04 12:21:57;;;;;;;5.97;4.03;;;31.20;22.10;;;;;;5096802;28;20212;-43
2021/04/04 12:24:51;;;;;;;4.43;4.03;;;31.50;22.00;;;;;;5097761;28;20813;-43
2021/04/04 12:27:25;;;;;;;5.10;4.70;;;30.60;22.20;;;;;;5080901;28;20430;-54
2021/04/04 12:29:52;;;;;;;4.23;3.83;;;31.10;21.60;;;;;;5097914;28;20821;-43
2021/04/04 12:32:23;;;;;;;6.87;4.30;;;31.70;21.60;;;;;;5097615;28;20429;-41
2021/04/04 12:34:50;;;;;;;5.90;4.77;;;32.50;21.60;;;;;;5096080;28;20397;-43
2021/04/04 12:37:19;;;;;;;5.57;4.40;;;32.70;20.60;;;;;;5079745;28;20441;-42
2021/04/04 12:39:45;;;;;;;6.73;4.70;;;31.90;20.60;;;;;;5079445;28;20397;-42
2021/04/04 12:42:15;;;;;;;5.40;4.93;;;28.60;21.10;;;;;;5101062;28;20858;-43
2021/04/04 12:44:44;;;;;;;6.87;4.73;;;29.30;21.70;;;;;;5084116;28;20176;-43
2021/04/04 12:47:11;;;;;;;5.53;4.77;;;30.00;22.30;;;;;;5101173;28;20826;-42
2021/04/04 12:49:39;;;;;;;6.20;5.30;;;30.20;21.50;;;;;;5101031;28;20742;-42
2021/04/04 12:52:05;;;;;;;5.77;4.80;;;28.50;21.00;;;;;;5101275;28;20438;-43
2021/04/04 12:54:31;;;;;;;6.47;5.60;;;24.80;22.70;;;;;;5084102;28;20417;-41
2021/04/04 12:56:57;;;;;;;5.80;4.53;;;24.40;23.40;;;;;;5100838;28;20438;-42
2021/04/04 12:59:23;;;;;;;4.97;4.50;;;26.40;23.60;;;;;;5081830;28;20466;-44
2021/04/04 13:01:53;;;;;;;5.00;4.00;;;26.80;22.50;;;;;;5099945;28;20437;-43
2021/04/04 13:04:24;;;;;;;8.50;5.07;;;27.60;23.10;;;;;;5101154;28;20414;-43
2021/04/04 13:06:55;;;;;;;5.70;5.20;;;29.50;22.50;;;;;;5100986;28;20511;-43
2021/04/04 13:09:20;;;;;;;6.50;5.13;;;30.30;22.20;;;;;;5083058;28;20426;-44
2021/04/04 13:11:47;;;;;;;5.73;4.33;;;29.90;21.90;;;;;;5100321;28;20470;-42
2021/04/04 13:14:23;;;;;;;8.10;4.30;;;30.10;21.80;;;;;;5100399;28;20247;-43
2021/04/04 13:16:56;;;;;;;4.90;4.30;;;30.60;22.20;;;;;;5082633;28;20853;-43
2021/04/04 13:19:23;;;;;;;6.00;5.13;;;31.70;21.50;;;;;;5083333;28;20436;-43